Valdez Pioneer Field
PAVD : now visible

Airfield :











YOU CAN JOIN US ON...

 
LOGIN :

Register | Disclaimer

   EN    FR    IT 

 









Legend :    VFR   Marginal VFR   IFR   Intensive IFR   Very Intensive IFR
Visi :
Ceiling :
>= 8 km
>= 3000ft
5 to 8 km
1000 to 3000 ft
1500m to 5 km
500 to 1000 ft
800 to 1500m
200 to 500 ft
< 800m
< 200 ft
Symbols :   Thunderstorms  Fog  Heavy snow  Heavy precipitations  Wind > 20 kt






- Airport Elevation : 121 ft
- IATA code : VDZ


PAVD - Valdez Pioneer Field

CURRENT METAR :
  • 280053Z 00000KT 1/4SM SN FZFG VV001 M13/M16 A2943 RMK AO2 P0000

EXPIRED METARs :
  • 280011Z VRB04KT 2 1/2SM -SN FEW001 BKN027 OVC050 M13/M16 A2942 RMK AO2 P0000
  • 272356Z 00000KT 8SM -SN FEW001 BKN030 OVC060 M13/M16 A2941 RMK AO2 SLP958 P0000 60000 T11281156 11122 21133 52003
  • 272343Z 36003KT 4SM -SN BR FEW001 BKN020 OVC035 M13/M16 A2941 RMK AO2 P0000
  • 272256Z 12005KT 1/2SM SN FEW001 BKN012 OVC020 M13/M16 A2940 RMK AO2 SLP957 P0000 T11281156

TAF PAVD
Valid from the 28 at 00:00 until the 29 at 00:00 UTC


272322Z 2800/2824 VRB03KT 1SM -SN OVC015
TEMPO 2800/2804 3SM -SHSN BKN025
FM281800 07002KT 6SM -SN BR SCT005 OVC020 AMD LTD TO CLD VIS AND WIND



MET'MAP, your aeronautical weather chart ! - Copyright ORBIFLY December 2007 - Disclaimer

ORBIFLY MET'MAP TEAM :

Programming & Development : Alexandra Zaïnal
Concept & original design : Baudouin d'Aumeries
Assistance for programming : Marc-Olivier Méhu
Technical & hardware support : Manuel Goepfert

Contact : metmap@orbifly.com




SOURCES & CREDITS :

   NOAA       Earth
Advisory